createdAt,value
2022-09-23T00:02:43.014Z,5.30
2022-09-23T00:06:44.697Z,5.43
2022-09-23T00:10:46.378Z,5.50
2022-09-23T00:14:48.074Z,5.78
2022-09-23T00:18:50.905Z,5.88
2022-09-23T00:22:53.462Z,5.80
2022-09-23T00:26:55.122Z,4.90
2022-09-23T00:30:57.085Z,6.30
2022-09-23T00:34:58.813Z,5.88
2022-09-23T00:39:00.678Z,5.53
2022-09-23T00:43:02.357Z,5.50
2022-09-23T00:47:04.191Z,6.35
2022-09-23T00:51:09.125Z,6.38
2022-09-23T00:55:16.030Z,5.47
2022-09-23T00:59:17.826Z,5.07
2022-09-23T01:03:19.939Z,5.97
2022-09-23T01:07:21.954Z,5.63
2022-09-23T01:11:45.422Z,6.07
2022-09-23T01:15:53.480Z,6.28
2022-09-23T01:20:15.393Z,5.78
2022-09-23T01:24:46.295Z,5.93
2022-09-23T01:29:24.413Z,6.57
2022-09-23T01:33:47.963Z,5.72
2022-09-23T01:38:10.853Z,5.80
2022-09-23T01:42:17.743Z,5.32
2022-09-23T01:46:52.202Z,5.95
2022-09-23T01:51:02.675Z,5.63
2022-09-23T01:55:22.311Z,5.82
2022-09-23T01:59:29.875Z,5.78
2022-09-23T02:03:37.269Z,5.47
2022-09-23T02:07:44.184Z,5.27
2022-09-23T02:11:48.820Z,5.97
2022-09-23T02:15:54.509Z,5.88
2022-09-23T02:20:01.840Z,5.45
2022-09-23T02:24:09.646Z,5.80
2022-09-23T02:28:17.001Z,5.70
2022-09-23T02:32:36.327Z,5.20
2022-09-23T02:37:01.879Z,5.43
2022-09-23T02:41:23.832Z,5.18
2022-09-23T02:45:25.809Z,5.45
2022-09-23T02:49:29.614Z,5.97
2022-09-23T02:53:35.188Z,5.53
2022-09-23T02:57:36.906Z,5.63
2022-09-23T03:02:02.193Z,5.53
2022-09-23T03:06:26.497Z,5.55
2022-09-23T03:10:42.105Z,5.40
2022-09-23T03:15:07.470Z,5.25
2022-09-23T03:19:23.557Z,5.43
2022-09-23T03:23:31.469Z,5.32
2022-09-23T03:27:36.596Z,6.40
2022-09-23T03:31:40.202Z,5.38
2022-09-23T03:36:08.798Z,5.68
2022-09-23T03:40:19.460Z,5.25
2022-09-23T03:44:21.917Z,5.78
2022-09-23T03:48:26.658Z,5.65
2022-09-23T03:52:28.648Z,5.75
2022-09-23T03:56:30.311Z,5.22
2022-09-23T04:00:31.999Z,5.95
2022-09-23T04:04:36.668Z,5.95
2022-09-23T04:08:38.331Z,6.05
2022-09-23T04:12:40.084Z,6.03
2022-09-23T04:16:41.801Z,6.22
2022-09-23T04:20:43.534Z,5.93
2022-09-23T04:24:45.206Z,6.40
2022-09-23T04:28:46.860Z,5.53
2022-09-23T04:32:48.570Z,6.40
2022-09-23T04:36:50.852Z,6.57
2022-09-23T04:40:52.574Z,5.18
2022-09-23T04:44:54.221Z,6.07
2022-09-23T04:48:55.901Z,5.85
2022-09-23T04:52:57.548Z,5.88
2022-09-23T04:56:59.399Z,6.05
2022-09-23T05:01:24.878Z,5.78
2022-09-23T05:05:27.773Z,5.85
2022-09-23T05:09:29.497Z,5.28
2022-09-23T05:13:32.698Z,6.10
2022-09-23T05:17:34.339Z,5.47
2022-09-23T05:21:37.860Z,5.75
2022-09-23T05:25:42.547Z,4.80
2022-09-23T05:29:44.641Z,5.30
2022-09-23T05:33:49.233Z,5.47
2022-09-23T05:37:50.861Z,5.57
2022-09-23T05:41:53.877Z,5.65
2022-09-23T05:46:08.359Z,5.60
2022-09-23T05:50:10.802Z,5.45
2022-09-23T10:31:08.684Z,5.55
2022-09-23T10:35:11.414Z,5.57
2022-09-23T10:39:31.774Z,5.75
2022-09-23T10:44:11.742Z,5.70
2022-09-23T10:48:40.847Z,5.47
2022-09-23T10:52:49.190Z,5.88
2022-09-23T10:57:43.569Z,5.47
2022-09-23T11:02:09.743Z,5.45
2022-09-23T11:06:29.797Z,6.05
2022-09-23T11:10:49.847Z,5.20
2022-09-23T11:15:12.310Z,5.82
2022-09-23T11:19:53.914Z,5.32
2022-09-23T11:24:28.186Z,4.68
2022-09-23T11:28:45.392Z,5.00
2022-09-23T11:33:14.386Z,5.57
2022-09-23T11:37:22.041Z,5.50
2022-09-23T11:41:31.422Z,4.72
2022-09-23T11:45:52.093Z,5.05
2022-09-23T11:50:04.441Z,5.65
2022-09-23T11:54:23.203Z,5.20
2022-09-23T11:58:31.783Z,5.57
2022-09-23T12:02:40.024Z,4.93
2022-09-23T12:06:48.046Z,6.20
2022-09-23T12:11:06.559Z,5.38
2022-09-23T12:19:31.161Z,5.10
2022-09-23T12:23:49.550Z,5.82
2022-09-23T12:31:57.086Z,6.00
2022-09-23T12:36:09.541Z,6.05
2022-09-23T12:40:23.999Z,5.95
2022-09-23T12:44:39.417Z,6.07
2022-09-23T12:48:59.100Z,4.95
2022-09-23T12:53:35.845Z,5.07
2022-09-23T12:57:37.491Z,4.20
2022-09-23T13:01:39.782Z,4.32
2022-09-23T13:06:11.850Z,4.03
2022-09-23T13:10:30.941Z,4.20
2022-09-23T13:14:34.128Z,4.00
2022-09-23T13:18:54.698Z,3.50
2022-09-23T13:22:56.306Z,3.67
2022-09-23T13:27:26.711Z,3.83
2022-09-23T13:31:28.606Z,4.85
2022-09-23T13:35:37.493Z,3.83
2022-09-23T13:39:39.160Z,3.70
2022-09-23T13:43:45.353Z,4.40
2022-09-23T13:47:48.937Z,4.45
2022-09-23T13:51:53.477Z,4.05
2022-09-23T13:56:04.036Z,4.63
2022-09-23T14:00:21.272Z,4.50
2022-09-23T14:04:25.406Z,5.25
2022-09-23T14:08:29.348Z,4.47
2022-09-23T14:12:31.065Z,4.22
2022-09-23T14:16:38.229Z,4.07
2022-09-23T14:20:50.338Z,4.63
2022-09-23T14:24:52.935Z,3.95
2022-09-23T14:28:54.877Z,4.50
2022-09-23T14:32:57.072Z,4.38
2022-09-23T14:37:32.018Z,4.30
2022-09-23T14:41:39.863Z,4.45
2022-09-23T14:45:45.275Z,4.43
2022-09-23T14:50:11.203Z,4.88
2022-09-23T14:54:41.524Z,5.47
2022-09-23T14:58:50.993Z,5.65
2022-09-23T15:03:11.688Z,5.93
2022-09-23T15:07:19.077Z,5.72
2022-09-23T15:11:23.623Z,6.10
2022-09-23T15:15:30.344Z,6.35
2022-09-23T15:19:35.435Z,7.43
2022-09-23T15:23:51.821Z,7.25
2022-09-23T15:27:59.421Z,7.32
2022-09-23T15:32:01.380Z,7.68
2022-09-23T15:36:03.512Z,7.55
2022-09-23T15:40:06.279Z,7.68
2022-09-23T15:44:21.704Z,8.25
2022-09-23T15:48:27.509Z,7.95
2022-09-23T15:52:29.210Z,9.13
2022-09-23T15:56:30.886Z,8.73
2022-09-23T16:00:34.850Z,9.00
2022-09-23T16:04:37.194Z,10.07
2022-09-23T16:08:39.363Z,9.60
2022-09-23T16:12:41.430Z,9.48
2022-09-23T16:16:45.228Z,9.57
2022-09-23T16:20:47.764Z,7.60
2022-09-23T16:24:49.480Z,5.45
2022-09-23T16:28:54.134Z,5.13
2022-09-23T16:32:56.562Z,4.72
2022-09-23T16:36:58.315Z,5.47
2022-09-23T16:41:00.832Z,4.85
2022-09-23T16:45:02.752Z,5.60
2022-09-23T16:49:05.151Z,4.90
2022-09-23T16:53:06.952Z,5.65
2022-09-23T16:57:09.770Z,5.63
2022-09-23T17:01:42.683Z,5.70
2022-09-23T17:05:46.794Z,6.32
2022-09-23T17:09:48.949Z,5.60
2022-09-23T17:13:51.657Z,6.18
2022-09-23T17:17:53.321Z,5.93
2022-09-23T17:21:55.082Z,5.68
2022-09-23T17:25:57.117Z,6.70
2022-09-23T17:29:59.052Z,6.13
2022-09-23T17:34:01.081Z,6.35
2022-09-23T17:38:02.747Z,6.38
2022-09-23T17:42:05.107Z,7.53
2022-09-23T17:46:12.968Z,10.13
2022-09-23T17:50:15.007Z,10.07
2022-09-23T17:54:16.785Z,10.35
2022-09-23T17:58:18.964Z,10.05
2022-09-23T18:02:23.635Z,12.10
2022-09-23T18:06:28.290Z,13.75
2022-09-23T18:10:30.776Z,14.10
2022-09-23T18:14:32.447Z,14.30
2022-09-23T18:18:34.185Z,14.27
2022-09-23T18:22:35.823Z,14.15
2022-09-23T18:26:38.319Z,16.20
2022-09-23T18:30:40.238Z,16.48
2022-09-23T18:34:41.862Z,16.52
2022-09-23T18:38:43.591Z,17.33
2022-09-23T18:42:45.229Z,19.27
2022-09-23T18:46:46.883Z,16.20
2022-09-23T18:50:49.363Z,14.95
2022-09-23T18:54:55.085Z,14.00
2022-09-23T18:58:56.915Z,9.40
2022-09-23T19:02:58.721Z,7.90
2022-09-23T19:07:00.473Z,7.50
2022-09-23T19:11:04.053Z,7.57
2022-09-23T19:15:06.170Z,7.82
2022-09-23T19:19:08.689Z,8.52
2022-09-23T19:23:10.359Z,8.25
2022-09-23T19:27:12.024Z,8.20
2022-09-23T19:31:25.294Z,7.78
2022-09-23T19:35:27.326Z,7.80
2022-09-23T19:39:31.634Z,7.32
2022-09-23T19:43:36.973Z,6.53
2022-09-23T19:47:39.503Z,5.32
2022-09-23T19:51:41.449Z,6.15
2022-09-23T19:55:44.370Z,5.90
2022-09-23T19:59:46.128Z,5.72
2022-09-23T20:03:48.235Z,5.20
2022-09-23T20:07:50.332Z,5.20
2022-09-23T20:11:52.215Z,5.28
2022-09-23T20:15:53.927Z,5.05
2022-09-23T20:19:55.643Z,5.32
2022-09-23T20:23:58.073Z,4.88
2022-09-23T20:27:59.720Z,4.95
2022-09-23T20:32:01.595Z,4.97
2022-09-23T20:36:03.402Z,4.97
2022-09-23T20:40:05.763Z,4.80
2022-09-23T20:44:12.466Z,4.40
2022-09-23T20:48:14.598Z,4.32
2022-09-23T20:52:17.965Z,5.78
2022-09-23T20:56:21.382Z,6.45
2022-09-23T21:00:23.077Z,7.10
2022-09-23T21:04:25.535Z,8.50
2022-09-23T21:08:27.311Z,8.00
2022-09-23T21:12:29.027Z,8.40
2022-09-23T21:16:31.039Z,9.00
2022-09-23T21:20:32.903Z,9.52
2022-09-23T21:25:12.126Z,9.80
2022-09-23T21:28:59.684Z,11.20
2022-09-23T21:33:01.997Z,10.77
2022-09-23T21:37:04.309Z,12.30
2022-09-23T21:41:09.055Z,10.30
2022-09-23T21:45:11.119Z,11.88
2022-09-23T21:49:13.302Z,11.77
2022-09-23T21:53:17.851Z,11.27
2022-09-23T21:57:19.543Z,12.23
2022-09-23T22:01:24.114Z,10.32
2022-09-23T22:05:25.924Z,11.05
2022-09-23T22:09:27.677Z,11.38
2022-09-23T22:13:29.427Z,11.32
2022-09-23T22:17:33.185Z,12.52
2022-09-23T22:21:36.733Z,11.55
2022-09-23T22:25:38.474Z,11.52
2022-09-23T22:29:58.685Z,12.73
2022-09-23T22:34:00.413Z,13.07
2022-09-23T22:38:02.127Z,14.10
2022-09-23T22:42:05.432Z,12.60
2022-09-23T22:46:07.264Z,13.82
2022-09-23T22:50:09.819Z,12.88
2022-09-23T22:54:11.979Z,13.10
2022-09-23T22:58:31.035Z,13.85
2022-09-23T23:02:34.076Z,13.50
2022-09-23T23:06:37.152Z,13.90
2022-09-23T23:10:38.855Z,13.73
2022-09-23T23:14:40.797Z,13.45
2022-09-23T23:18:43.430Z,13.15
2022-09-23T23:22:45.123Z,14.45
2022-09-23T23:26:47.577Z,12.25
2022-09-23T23:30:49.256Z,12.43
2022-09-23T23:34:50.936Z,12.50
2022-09-23T23:38:52.703Z,10.43
2022-09-23T23:42:54.599Z,10.82
2022-09-23T23:46:56.340Z,11.15
2022-09-23T23:50:59.507Z,10.85
2022-09-23T23:55:01.204Z,10.32
2022-09-23T23:59:03.588Z,10.90
